Seymour, Missouri
Current Conditions -  °F | °C
As of 7:52 PM on Sunday 21 Dec 2014 (Local Time) from KSGF Reporting Station
Overcast Overcast  
Wind Chill: 35°   Ceiling: 6000
Heat Index: 42°   Visibility: 10mi
Dew Point: 35°   Wind: 14mph
Humidity: 76%   Direction: 140°SE
Pressure: 29.86"   Gusts: NA
Location:  37.15°N, 92.77°W
Report Text: KSGF 220152Z 14012KT 10SM OVC060 06/02 A2986 RMK AO2 SLP115 T00560017
Loading
Personal Weather Stations






























Interactive Weather Map New forecast layout! Learn more

10-Day Weather Forecast

Advertisements
Track Severe Weather on mobile